createdAt,value
2019-04-04T00:02:23.781Z,23.17
2019-04-04T00:04:52.503Z,23.20
2019-04-04T00:07:20.720Z,22.63
2019-04-04T00:09:48.555Z,21.00
2019-04-04T00:12:16.307Z,22.73
2019-04-04T00:14:44.265Z,20.63
2019-04-04T00:17:12.073Z,24.50
2019-04-04T00:19:39.872Z,29.00
2019-04-04T00:22:07.709Z,24.57
2019-04-04T00:24:35.661Z,24.53
2019-04-04T00:27:03.412Z,22.40
2019-04-04T00:29:31.212Z,24.20
2019-04-04T00:31:59.010Z,23.73
2019-04-04T00:34:28.108Z,27.10
2019-04-04T00:36:56.692Z,24.23
2019-04-04T00:39:24.522Z,25.37
2019-04-04T00:41:52.294Z,25.27
2019-04-04T00:44:22.718Z,26.30
2019-04-04T00:46:49.733Z,27.73
2019-04-04T00:49:17.508Z,24.03
2019-04-04T00:51:45.279Z,23.47
2019-04-04T00:54:14.121Z,24.20
2019-04-04T00:56:42.460Z,26.27
2019-04-04T00:59:10.246Z,24.77
2019-04-04T01:01:38.011Z,25.20
2019-04-04T01:04:05.781Z,23.70
2019-04-04T01:06:34.289Z,22.37
2019-04-04T01:09:04.642Z,25.83
2019-04-04T01:11:32.423Z,21.60
2019-04-04T01:14:00.594Z,21.33
2019-04-04T01:16:28.401Z,20.40
2019-04-04T01:18:56.165Z,19.57
2019-04-04T01:21:24.026Z,22.00
2019-04-04T01:23:51.821Z,18.30
2019-04-04T01:26:19.599Z,17.37
2019-04-04T01:28:47.365Z,16.07
2019-04-04T01:31:15.541Z,15.43
2019-04-04T01:33:43.367Z,14.90
2019-04-04T01:36:11.159Z,14.30
2019-04-04T01:38:38.905Z,13.47
2019-04-04T01:41:06.652Z,14.13
2019-04-04T01:43:34.813Z,14.13
2019-04-04T01:46:02.540Z,15.37
2019-04-04T01:48:30.265Z,13.90
2019-04-04T01:50:58.035Z,13.27
2019-04-04T01:53:25.763Z,12.50
2019-04-04T01:55:53.805Z,11.13
2019-04-04T01:58:21.537Z,11.37
2019-04-04T02:00:49.289Z,11.97
2019-04-04T02:03:17.793Z,10.80
2019-04-04T02:05:45.521Z,11.90
2019-04-04T02:08:13.272Z,10.93
2019-04-04T02:10:40.985Z,11.33
2019-04-04T02:13:09.865Z,11.47
2019-04-04T02:15:38.245Z,10.90
2019-04-04T02:18:05.998Z,11.57
2019-04-04T02:20:33.867Z,12.77
2019-04-04T02:23:01.950Z,12.47
2019-04-04T02:25:29.744Z,12.93
2019-04-04T02:27:57.898Z,12.73
2019-04-04T02:30:25.621Z,10.43
2019-04-04T02:32:53.694Z,12.90
2019-04-04T02:35:21.756Z,11.00
2019-04-04T02:37:49.533Z,9.97
2019-04-04T02:40:17.279Z,11.03
2019-04-04T02:42:45.062Z,9.30
2019-04-04T02:45:12.922Z,9.13
2019-04-04T02:47:40.746Z,9.13
2019-04-04T02:50:08.891Z,8.77
2019-04-04T02:52:36.634Z,8.07
2019-04-04T02:55:04.823Z,8.47
2019-04-04T02:57:32.591Z,9.53
2019-04-04T03:00:00.425Z,10.53
2019-04-04T03:02:28.188Z,9.63
2019-04-04T03:04:55.946Z,10.67
2019-04-04T03:07:23.679Z,11.07
2019-04-04T03:09:51.399Z,10.50
2019-04-04T03:12:19.287Z,10.90
2019-04-04T03:14:50.313Z,12.93
2019-04-04T03:17:16.706Z,14.37
2019-04-04T03:19:44.686Z,12.83
2019-04-04T03:22:12.501Z,14.33
2019-04-04T03:24:44.472Z,15.37
2019-04-04T03:27:10.013Z,16.00
2019-04-04T03:29:38.448Z,14.07
2019-04-04T03:32:13.135Z,17.40
2019-04-04T03:34:36.141Z,18.30
2019-04-04T03:37:06.639Z,17.57
2019-04-04T03:39:33.561Z,16.83
2019-04-04T03:42:01.334Z,17.70
2019-04-04T03:44:29.063Z,17.77
2019-04-04T03:46:56.810Z,18.47
2019-04-04T03:49:26.975Z,19.17
2019-04-04T03:51:54.728Z,18.00
2019-04-04T03:54:25.105Z,17.87
2019-04-04T03:56:52.788Z,18.27
2019-04-04T03:59:20.564Z,18.20
2019-04-04T04:01:48.319Z,17.03
2019-04-04T04:04:16.079Z,18.57
2019-04-04T04:06:44.007Z,17.70
2019-04-04T04:09:11.777Z,16.53
2019-04-04T04:11:39.543Z,15.57
2019-04-04T04:14:07.299Z,17.63
2019-04-04T04:16:36.104Z,15.53
2019-04-04T04:19:04.340Z,17.23
2019-04-04T04:21:32.062Z,18.17
2019-04-04T04:23:59.820Z,17.43
2019-04-04T04:26:27.552Z,18.90
2019-04-04T04:28:55.344Z,18.33
2019-04-04T04:31:23.093Z,19.50
2019-04-04T04:33:50.828Z,19.23
2019-04-04T04:36:18.576Z,20.93
2019-04-04T04:38:46.344Z,18.87
2019-04-04T04:41:14.126Z,19.47
2019-04-04T04:43:41.857Z,21.00
2019-04-04T04:46:09.630Z,20.23
2019-04-04T04:48:37.387Z,17.23
2019-04-04T04:51:05.107Z,19.60
2019-04-04T04:53:32.843Z,18.57
2019-04-04T04:56:00.792Z,19.87
2019-04-04T04:58:28.628Z,18.00
2019-04-04T05:00:56.417Z,17.13
2019-04-04T05:03:24.812Z,15.63
2019-04-04T05:05:52.705Z,17.07
2019-04-04T05:08:20.469Z,15.27
2019-04-04T05:10:48.190Z,15.60
2019-04-04T05:13:15.947Z,18.47
2019-04-04T05:15:43.697Z,18.63
2019-04-04T05:18:11.973Z,17.13
2019-04-04T05:20:39.909Z,18.63
2019-04-04T05:23:07.611Z,17.27
2019-04-04T05:25:35.493Z,17.00
2019-04-04T05:28:06.105Z,17.00
2019-04-04T05:30:32.920Z,17.53
2019-04-04T05:33:00.671Z,18.70
2019-04-04T05:35:28.412Z,17.97
2019-04-04T05:37:56.153Z,18.57
2019-04-04T05:40:24.287Z,20.67
2019-04-04T05:42:52.083Z,19.87
2019-04-04T05:45:19.877Z,19.43
2019-04-04T05:47:47.631Z,17.47
2019-04-04T05:50:16.472Z,20.07
2019-04-04T05:52:44.364Z,19.03
2019-04-04T05:55:12.097Z,18.67
2019-04-04T05:57:39.867Z,19.37
2019-04-04T06:00:10.618Z,19.07
2019-04-04T06:02:38.373Z,21.93
2019-04-04T06:05:06.643Z,21.93
2019-04-04T06:07:36.412Z,24.87
2019-04-04T06:10:04.680Z,25.70
2019-04-04T06:12:32.444Z,28.87
2019-04-04T06:15:01.129Z,24.10
2019-04-04T06:17:29.010Z,27.50
2019-04-04T06:19:56.758Z,24.00
2019-04-04T06:22:24.515Z,25.43
2019-04-04T06:24:52.429Z,21.50
2019-04-04T06:27:20.193Z,23.50
2019-04-04T06:29:48.340Z,23.80
2019-04-04T06:32:16.105Z,24.40
2019-04-04T06:34:44.299Z,25.33
2019-04-04T06:37:12.568Z,26.73
2019-04-04T06:39:40.278Z,29.10
2019-04-04T06:42:11.168Z,31.03
2019-04-04T06:44:37.691Z,32.50
2019-04-04T06:47:05.551Z,29.43
2019-04-04T06:49:35.478Z,27.87
2019-04-04T06:52:02.994Z,30.53
2019-04-04T06:54:30.787Z,28.60
2019-04-04T06:56:59.274Z,31.90
2019-04-04T06:59:27.144Z,28.33
2019-04-04T07:01:54.944Z,30.53
2019-04-04T07:04:22.679Z,29.63
2019-04-04T07:06:50.435Z,31.63
2019-04-04T07:09:19.176Z,28.83
2019-04-04T07:11:47.016Z,37.03
2019-04-04T07:14:14.770Z,38.20
2019-04-04T07:16:42.543Z,34.67
2019-04-04T07:19:14.146Z,36.73
2019-04-04T07:21:40.027Z,36.53
2019-04-04T07:24:07.754Z,38.07
2019-04-04T07:26:35.533Z,34.50
2019-04-04T07:29:03.473Z,38.13
2019-04-04T07:31:33.432Z,36.83
2019-04-04T07:34:00.855Z,36.13
2019-04-04T07:36:28.623Z,34.63
2019-04-04T07:38:58.171Z,36.03
2019-04-04T07:41:26.303Z,35.53
2019-04-04T07:43:54.051Z,34.50
2019-04-04T07:46:21.765Z,34.13
2019-04-04T07:48:51.581Z,32.17
2019-04-04T07:51:19.167Z,31.23
2019-04-04T07:53:46.893Z,34.63
2019-04-04T07:56:14.947Z,32.33
2019-04-04T07:58:42.709Z,31.27
2019-04-04T08:01:10.447Z,30.77
2019-04-04T08:03:38.217Z,30.33
2019-04-04T08:06:06.004Z,28.30
2019-04-04T08:08:33.905Z,27.07
2019-04-04T08:11:02.205Z,28.13
2019-04-04T08:13:29.948Z,28.63
2019-04-04T08:15:57.729Z,33.87
2019-04-04T08:18:25.453Z,31.10
2019-04-04T08:20:53.236Z,27.87
2019-04-04T08:23:21.770Z,25.77
2019-04-04T08:25:49.524Z,29.37
2019-04-04T08:28:17.250Z,28.30
2019-04-04T08:30:45.112Z,30.93
2019-04-04T08:33:13.373Z,31.23
2019-04-04T08:35:41.136Z,34.70
2019-04-04T08:38:08.896Z,30.97
2019-04-04T08:40:36.679Z,29.57
2019-04-04T08:43:04.423Z,28.27
2019-04-04T08:45:32.160Z,30.80
2019-04-04T08:47:59.909Z,29.23
2019-04-04T08:50:27.689Z,28.47
2019-04-04T08:52:55.422Z,29.93
2019-04-04T08:55:23.159Z,26.47
2019-04-04T08:57:50.912Z,26.73
2019-04-04T09:00:18.632Z,24.35
2019-04-04T09:02:47.608Z,23.38
2019-04-04T09:05:15.344Z,21.90
2019-04-04T09:07:43.101Z,19.12
2019-04-04T09:10:11.191Z,23.62
2019-04-04T09:12:38.984Z,20.48
2019-04-04T09:15:07.875Z,18.27
2019-04-04T09:17:35.633Z,16.50
2019-04-04T09:20:05.151Z,20.02
2019-04-04T09:22:32.876Z,23.90
2019-04-04T09:25:01.541Z,22.13
2019-04-04T09:27:29.456Z,22.55
2019-04-04T09:29:57.155Z,15.10
2019-04-04T09:32:24.899Z,19.77
2019-04-04T09:34:52.839Z,19.70
2019-04-04T09:37:20.575Z,15.10
2019-04-04T09:39:48.343Z,15.15
2019-04-04T09:42:16.398Z,14.70
2019-04-04T09:44:44.158Z,15.83
2019-04-04T09:47:12.180Z,20.70
2019-04-04T09:49:39.912Z,15.80
2019-04-04T09:52:07.659Z,23.18
2019-04-04T09:54:35.402Z,19.05
2019-04-04T09:57:03.144Z,20.37
2019-04-04T09:59:30.876Z,21.97
2019-04-04T10:01:58.625Z,19.48
2019-04-04T10:04:26.344Z,14.87
2019-04-04T10:06:54.329Z,18.00
2019-04-04T10:09:22.056Z,15.03
2019-04-04T10:11:49.813Z,12.73
2019-04-04T10:14:17.543Z,20.23
2019-04-04T10:16:45.274Z,16.00
2019-04-04T10:19:13.043Z,22.98
2019-04-04T10:21:40.786Z,15.83
2019-04-04T10:24:08.528Z,21.37
2019-04-04T10:26:36.252Z,22.17
2019-04-04T10:29:04.011Z,19.57
2019-04-04T10:31:31.732Z,12.20
2019-04-04T10:33:59.488Z,20.57
2019-04-04T10:36:27.234Z,20.70
2019-04-04T10:38:54.952Z,13.30
2019-04-04T10:41:22.703Z,17.32
2019-04-04T10:43:50.601Z,12.63
2019-04-04T10:46:18.541Z,22.82
2019-04-04T10:48:46.259Z,17.62
2019-04-04T10:51:14.260Z,17.87
2019-04-04T10:53:41.977Z,14.90
2019-04-04T10:56:09.939Z,22.32
2019-04-04T10:58:38.246Z,19.57
2019-04-04T11:01:06.063Z,24.12
2019-04-04T11:03:33.787Z,23.83
2019-04-04T11:06:01.566Z,22.90
2019-04-04T11:08:29.323Z,22.98
2019-04-04T11:10:58.957Z,17.62
2019-04-04T11:13:33.444Z,20.50
2019-04-04T11:15:56.393Z,24.45
2019-04-04T11:18:24.177Z,23.83
2019-04-04T11:20:52.117Z,20.45
2019-04-04T11:23:19.891Z,17.57
2019-04-04T11:25:48.065Z,16.12
2019-04-04T11:28:15.838Z,16.90
2019-04-04T11:30:43.711Z,22.77
2019-04-04T11:33:11.475Z,21.12
2019-04-04T11:35:39.423Z,15.75
2019-04-04T11:38:07.238Z,24.77
2019-04-04T11:40:34.967Z,23.77
2019-04-04T11:43:02.761Z,25.88
2019-04-04T11:45:30.604Z,21.05
2019-04-04T11:47:59.199Z,22.65
2019-04-04T11:50:27.031Z,20.12
2019-04-04T11:52:54.838Z,16.10
2019-04-04T11:55:22.594Z,25.55
2019-04-04T11:57:50.372Z,24.12
2019-04-04T12:00:26.056Z,16.52
2019-04-04T12:02:53.869Z,20.57
2019-04-04T12:05:21.602Z,19.92
2019-04-04T12:07:49.361Z,19.42
2019-04-04T12:10:17.088Z,18.20
2019-04-04T12:12:44.840Z,19.42
2019-04-04T12:15:12.796Z,18.62
2019-04-04T12:17:40.534Z,17.02
2019-04-04T12:20:08.695Z,22.27
2019-04-04T12:22:36.426Z,20.95
2019-04-04T12:25:04.803Z,20.12
2019-04-04T12:27:32.560Z,21.17
2019-04-04T12:30:00.323Z,20.40
2019-04-04T12:32:28.072Z,19.67
2019-04-04T12:34:55.823Z,21.00
2019-04-04T12:37:23.565Z,24.65
2019-04-04T12:39:51.324Z,21.33
2019-04-04T12:42:19.057Z,22.87
2019-04-04T12:44:46.822Z,23.62
2019-04-04T12:47:14.608Z,21.02
2019-04-04T12:49:42.388Z,19.82
2019-04-04T12:52:10.117Z,22.75
2019-04-04T12:54:37.873Z,21.97
2019-04-04T12:57:05.636Z,23.02
2019-04-04T12:59:33.513Z,18.65
2019-04-04T13:02:03.035Z,17.80
2019-04-04T13:04:32.063Z,18.05
2019-04-04T13:07:00.062Z,18.73
2019-04-04T13:09:27.828Z,14.58
2019-04-04T13:11:55.589Z,16.97
2019-04-04T13:14:23.315Z,16.17
2019-04-04T13:16:51.046Z,15.23
2019-04-04T13:19:18.841Z,19.77
2019-04-04T13:21:46.531Z,19.23
2019-04-04T13:24:14.341Z,21.87
2019-04-04T13:26:43.460Z,22.67
2019-04-04T13:29:11.297Z,22.07
2019-04-04T13:31:39.036Z,21.25
2019-04-04T13:34:06.819Z,20.48
2019-04-04T13:36:36.714Z,19.23
2019-04-04T13:39:09.045Z,12.88
2019-04-04T13:41:37.076Z,12.98
2019-04-04T13:44:04.922Z,11.93
2019-04-04T13:46:32.688Z,10.93
2019-04-04T13:49:00.410Z,11.00
2019-04-04T13:51:28.202Z,10.18
2019-04-04T13:53:55.912Z,8.98
2019-04-04T13:56:23.699Z,7.62
2019-04-04T13:58:51.470Z,7.15
2019-04-04T14:01:19.214Z,8.65
2019-04-04T14:03:48.170Z,6.65
2019-04-04T14:06:15.968Z,6.72
2019-04-04T14:08:45.806Z,9.15
2019-04-04T14:11:13.454Z,6.33
2019-04-04T14:13:41.190Z,6.30
2019-04-04T14:16:08.912Z,7.05
2019-04-04T14:18:39.833Z,7.72
2019-04-04T14:21:06.383Z,5.90
2019-04-04T14:23:34.098Z,5.58
2019-04-04T14:26:02.209Z,9.83
2019-04-04T14:28:29.944Z,5.80
2019-04-04T14:30:58.201Z,6.50
2019-04-04T14:33:25.926Z,6.28
2019-04-04T14:35:53.692Z,6.12
2019-04-04T14:38:21.431Z,6.25
2019-04-04T14:40:49.222Z,6.08
2019-04-04T14:43:16.969Z,6.45
2019-04-04T14:45:44.705Z,6.40
2019-04-04T14:48:12.489Z,7.12
2019-04-04T14:50:40.283Z,6.58
2019-04-04T14:53:08.020Z,6.53
2019-04-04T14:55:35.792Z,7.33
2019-04-04T14:58:03.665Z,7.67
2019-04-04T15:00:31.498Z,7.53
2019-04-04T15:02:59.266Z,7.63
2019-04-04T15:05:26.989Z,10.30
2019-04-04T15:07:54.749Z,8.13
2019-04-04T15:10:22.479Z,7.37
2019-04-04T15:12:50.473Z,7.53
2019-04-04T15:15:18.229Z,9.03
2019-04-04T15:17:45.979Z,9.60
2019-04-04T15:20:13.957Z,7.30
2019-04-04T15:22:41.736Z,7.80
2019-04-04T15:25:10.460Z,9.50
2019-04-04T15:27:38.232Z,7.17
2019-04-04T15:30:06.557Z,9.07
2019-04-04T15:32:34.289Z,7.10
2019-04-04T15:35:02.022Z,8.30
2019-04-04T15:37:29.799Z,6.90
2019-04-04T15:39:57.541Z,9.13
2019-04-04T15:42:25.307Z,7.60
2019-04-04T15:44:53.040Z,7.43
2019-04-04T15:47:20.881Z,7.53
2019-04-04T15:49:49.720Z,9.17
2019-04-04T15:52:17.489Z,7.70
2019-04-04T15:54:45.201Z,6.83
2019-04-04T15:57:12.990Z,7.37
2019-04-04T15:59:40.752Z,9.37
2019-04-04T16:02:08.544Z,7.27
2019-04-04T16:04:36.295Z,8.63
2019-04-04T16:07:04.989Z,6.77
2019-04-04T16:09:32.750Z,9.10
2019-04-04T16:12:00.527Z,7.90
2019-04-04T16:14:28.325Z,9.60
2019-04-04T16:16:56.074Z,7.03
2019-04-04T16:19:24.218Z,8.03
2019-04-04T16:21:51.994Z,9.47
2019-04-04T16:24:19.776Z,8.07
2019-04-04T16:26:47.528Z,6.03
2019-04-04T16:29:15.315Z,7.07
2019-04-04T16:31:43.033Z,6.23
2019-04-04T16:34:10.807Z,8.43
2019-04-04T16:36:38.601Z,7.37
2019-04-04T16:39:07.750Z,8.00
2019-04-04T16:41:35.555Z,7.17
2019-04-04T16:44:03.535Z,6.53
2019-04-04T16:46:31.299Z,6.63
2019-04-04T16:48:59.049Z,7.23
2019-04-04T16:51:26.789Z,6.80
2019-04-04T16:53:54.543Z,6.50
2019-04-04T16:56:22.301Z,8.47
2019-04-04T16:58:50.102Z,7.10
2019-04-04T17:01:17.822Z,6.60
2019-04-04T17:03:45.589Z,8.37
2019-04-04T17:06:13.325Z,7.40
2019-04-04T17:08:41.135Z,7.87
2019-04-04T17:11:08.890Z,8.00
2019-04-04T17:13:36.657Z,8.73
2019-04-04T17:16:04.331Z,7.50
2019-04-04T17:18:32.153Z,8.43
2019-04-04T17:20:59.938Z,7.30
2019-04-04T17:23:27.707Z,8.67
2019-04-04T17:25:55.456Z,9.10
2019-04-04T17:28:23.794Z,20.60
2019-04-04T17:30:51.913Z,36.50
2019-04-04T17:33:19.784Z,28.27
2019-04-04T17:35:47.579Z,31.97
2019-04-04T17:38:15.327Z,32.43
2019-04-04T17:40:43.088Z,36.67
2019-04-04T17:43:10.834Z,36.50
2019-04-04T17:45:39.127Z,40.63
2019-04-04T17:48:07.393Z,41.10
2019-04-04T17:50:35.623Z,41.50
2019-04-04T17:53:03.558Z,42.53
2019-04-04T17:55:31.546Z,42.20
2019-04-04T17:57:59.357Z,41.23
2019-04-04T18:00:28.401Z,41.00
2019-04-04T18:02:56.160Z,42.57
2019-04-04T18:05:24.220Z,40.50
2019-04-04T18:07:51.960Z,40.33
2019-04-04T18:10:19.796Z,42.00
2019-04-04T18:12:47.539Z,44.03
2019-04-04T18:15:15.626Z,43.57
2019-04-04T18:17:43.381Z,46.93
2019-04-04T18:20:11.656Z,44.57
2019-04-04T18:22:39.387Z,42.90
2019-04-04T18:25:08.649Z,43.80
2019-04-04T18:27:36.471Z,45.07
2019-04-04T18:30:06.868Z,47.80
2019-04-04T18:32:34.613Z,44.43
2019-04-04T18:35:02.482Z,44.83
2019-04-04T18:37:30.239Z,44.83
2019-04-04T18:39:57.999Z,44.73
2019-04-04T18:42:25.809Z,45.67
2019-04-04T18:44:53.575Z,43.90
2019-04-04T18:47:21.360Z,44.60
2019-04-04T18:49:49.191Z,42.67
2019-04-04T18:52:16.975Z,44.37
2019-04-04T18:54:44.953Z,41.70
2019-04-04T18:57:13.260Z,39.90
2019-04-04T18:59:41.150Z,39.53
2019-04-04T19:02:08.995Z,40.83
2019-04-04T19:04:36.854Z,40.80
2019-04-04T19:07:04.619Z,41.23
2019-04-04T19:09:32.471Z,41.33
2019-04-04T19:12:00.238Z,37.40
2019-04-04T19:14:27.976Z,39.30
2019-04-04T19:16:55.751Z,39.10
2019-04-04T19:19:23.523Z,39.60
2019-04-04T19:21:51.305Z,39.97
2019-04-04T19:24:19.067Z,36.40
2019-04-04T19:26:46.803Z,40.40
2019-04-04T19:29:14.581Z,38.63
2019-04-04T19:31:42.360Z,39.13
2019-04-04T19:34:10.129Z,36.03
2019-04-04T19:36:37.962Z,38.03
2019-04-04T19:39:09.224Z,38.10
2019-04-04T19:41:37.750Z,38.87
2019-04-04T19:44:05.604Z,37.03
2019-04-04T19:46:37.300Z,40.43
2019-04-04T19:49:03.080Z,41.10
2019-04-04T19:51:30.867Z,40.47
2019-04-04T19:53:58.658Z,43.57
2019-04-04T19:56:26.681Z,43.43
2019-04-04T19:58:54.487Z,41.57
2019-04-04T20:01:22.283Z,41.07
2019-04-04T20:03:50.036Z,43.07
2019-04-04T20:06:17.777Z,43.70
2019-04-04T20:08:45.517Z,46.17
2019-04-04T20:11:13.280Z,46.20
2019-04-04T20:13:41.038Z,46.90
2019-04-04T20:16:08.854Z,44.63
2019-04-04T20:18:36.659Z,47.10
2019-04-04T20:21:04.440Z,45.53
2019-04-04T20:23:32.240Z,44.23
2019-04-04T20:26:00.127Z,47.87
2019-04-04T20:28:28.020Z,46.20
2019-04-04T20:30:55.789Z,48.47
2019-04-04T20:33:23.604Z,50.23
2019-04-04T20:35:51.343Z,50.67
2019-04-04T20:38:19.139Z,49.83
2019-04-04T20:40:48.010Z,52.63
2019-04-04T20:43:15.779Z,47.10
2019-04-04T20:45:43.549Z,49.80
2019-04-04T20:48:11.301Z,49.93
2019-04-04T20:50:39.073Z,48.70
2019-04-04T20:53:06.850Z,53.57
2019-04-04T20:55:34.583Z,52.57
2019-04-04T20:58:02.437Z,50.03
2019-04-04T21:00:30.219Z,52.70
2019-04-04T21:02:58.019Z,58.87
2019-04-04T21:05:25.799Z,52.90
2019-04-04T21:07:53.559Z,53.53
2019-04-04T21:10:21.333Z,49.93
2019-04-04T21:12:49.097Z,52.83
2019-04-04T21:15:16.859Z,54.30
2019-04-04T21:17:44.623Z,50.63
2019-04-04T21:20:13.297Z,53.70
2019-04-04T21:22:41.023Z,55.43
2019-04-04T21:25:09.095Z,58.97
2019-04-04T21:27:36.838Z,53.97
2019-04-04T21:30:05.421Z,58.20
2019-04-04T21:32:33.177Z,62.30
2019-04-04T21:35:00.941Z,54.33
2019-04-04T21:37:28.682Z,62.43
2019-04-04T21:39:56.539Z,61.53
2019-04-04T21:42:24.288Z,60.37
2019-04-04T21:44:52.080Z,62.87
2019-04-04T21:47:19.814Z,65.23
2019-04-04T21:49:47.569Z,59.13
2019-04-04T21:52:15.322Z,62.67
2019-04-04T21:54:43.090Z,64.63
2019-04-04T21:57:10.844Z,63.00
2019-04-04T21:59:38.591Z,60.77
2019-04-04T22:02:06.337Z,61.40
2019-04-04T22:04:34.082Z,61.83
2019-04-04T22:07:01.838Z,63.80
2019-04-04T22:09:29.589Z,66.57
2019-04-04T22:11:57.329Z,65.07
2019-04-04T22:14:25.084Z,60.70
2019-04-04T22:16:52.806Z,63.83
2019-04-04T22:19:20.569Z,61.97
2019-04-04T22:21:48.296Z,62.47
2019-04-04T22:24:16.019Z,61.73
2019-04-04T22:26:43.787Z,68.37
2019-04-04T22:29:11.819Z,63.17
2019-04-04T22:31:39.570Z,63.43
2019-04-04T22:34:07.363Z,65.27
2019-04-04T22:36:35.134Z,64.77
2019-04-04T22:39:07.350Z,63.27
2019-04-04T22:41:35.145Z,62.43
2019-04-04T22:44:03.890Z,65.50
2019-04-04T22:46:31.804Z,62.37
2019-04-04T22:48:59.519Z,69.73
2019-04-04T22:51:27.271Z,69.00
2019-04-04T22:53:55.000Z,64.87
2019-04-04T22:56:22.771Z,68.30
2019-04-04T22:58:50.533Z,69.03
2019-04-04T23:01:18.299Z,70.27
2019-04-04T23:03:46.033Z,67.37
2019-04-04T23:06:14.126Z,66.93
2019-04-04T23:08:41.857Z,73.80
2019-04-04T23:11:09.608Z,70.40
2019-04-04T23:13:37.395Z,66.60
2019-04-04T23:16:05.154Z,65.83
2019-04-04T23:18:32.877Z,67.27
2019-04-04T23:21:00.688Z,65.87
2019-04-04T23:23:28.379Z,64.37
2019-04-04T23:25:56.136Z,60.70
2019-04-04T23:28:23.903Z,65.77
2019-04-04T23:30:51.637Z,61.33
2019-04-04T23:33:19.454Z,62.60
2019-04-04T23:35:47.248Z,64.23
2019-04-04T23:38:14.997Z,64.73
2019-04-04T23:40:42.811Z,60.67
2019-04-04T23:43:10.529Z,67.40
2019-04-04T23:45:38.288Z,61.80
2019-04-04T23:48:06.024Z,62.47
2019-04-04T23:50:33.757Z,61.67
2019-04-04T23:53:01.551Z,61.60
2019-04-04T23:55:29.288Z,60.03
2019-04-04T23:57:57.540Z,63.77
